Time;durP1;ratioP1;P1;durP2;ratioP2;P2;SDS_P1;SDS_P2;PMS_P1;PMS_P2;Temp;Humidity;BMP_temperature;BMP_pressure;BME280_temperature;BME280_humidity;BME280_pressure;Samples;Min_cycle;Max_cycle;Signal;HPM_P1;HPM_P2
2024/01/12 00:02:15;;;;;;;17.48;7.85;;;;;;;;;;5004271;28;20073;-68
2024/01/12 00:04:41;;;;;;;16.73;9.27;;;;;;;;;;5002575;28;20046;-68
2024/01/12 00:07:07;;;;;;;9.82;5.53;;;;;;;;;;5019139;28;20073;-68
2024/01/12 00:09:34;;;;;;;12.75;5.30;;;;;;;;;;5020793;28;20624;-68
2024/01/12 00:12:00;;;;;;;11.00;5.45;;;;;;;;;;4996469;28;20049;-68
2024/01/12 00:14:26;;;;;;;12.60;6.68;;;;;;;;;;4989249;28;20054;-68
2024/01/12 00:16:52;;;;;;;15.18;7.10;;;;;;;;;;4985716;28;20066;-68
2024/01/12 00:19:19;;;;;;;11.85;6.90;;;;;;;;;;4997432;28;20046;-68
2024/01/12 00:21:46;;;;;;;14.90;6.85;;;;;;;;;;4982434;28;20053;-68
2024/01/12 00:24:12;;;;;;;13.05;7.15;;;;;;;;;;4993127;28;20121;-68
2024/01/12 00:26:38;;;;;;;11.07;7.15;;;;;;;;;;5015339;28;20438;-68
2024/01/12 00:29:04;;;;;;;17.70;7.63;;;;;;;;;;4984398;28;20065;-68
2024/01/12 00:31:30;;;;;;;19.45;8.00;;;;;;;;;;5019438;28;20046;-69
2024/01/12 00:33:57;;;;;;;16.35;7.90;;;;;;;;;;4983797;28;20050;-68
2024/01/12 00:36:23;;;;;;;15.50;7.63;;;;;;;;;;5014317;28;20038;-68
2024/01/12 00:38:49;;;;;;;13.55;7.38;;;;;;;;;;4984096;28;20042;-68
2024/01/12 00:41:15;;;;;;;16.77;7.78;;;;;;;;;;4990688;28;20042;-68
2024/01/12 00:43:41;;;;;;;15.18;8.00;;;;;;;;;;4983541;28;20045;-68
2024/01/12 00:46:07;;;;;;;17.05;7.75;;;;;;;;;;4994199;28;20048;-68
2024/01/12 00:48:33;;;;;;;13.68;8.18;;;;;;;;;;4993110;28;20073;-68
2024/01/12 00:50:59;;;;;;;16.73;7.95;;;;;;;;;;4986478;28;20105;-68
2024/01/12 00:53:25;;;;;;;12.73;8.00;;;;;;;;;;4994609;28;20120;-68
2024/01/12 00:55:51;;;;;;;14.38;7.88;;;;;;;;;;4982690;28;20070;-68
2024/01/12 00:58:17;;;;;;;15.70;7.65;;;;;;;;;;4992202;28;20564;-68
2024/01/12 01:00:43;;;;;;;13.77;7.82;;;;;;;;;;4997001;28;20046;-68
2024/01/12 01:03:09;;;;;;;20.33;8.90;;;;;;;;;;5007791;28;20076;-68
2024/01/12 01:05:35;;;;;;;13.45;7.95;;;;;;;;;;5000967;28;20054;-68
2024/01/12 01:08:01;;;;;;;16.77;7.80;;;;;;;;;;4990137;28;20065;-68
2024/01/12 01:10:27;;;;;;;17.63;8.20;;;;;;;;;;5012059;28;20391;-68
2024/01/12 01:12:53;;;;;;;13.07;7.53;;;;;;;;;;5003671;28;20050;-68
2024/01/12 01:15:19;;;;;;;15.00;8.32;;;;;;;;;;4985193;28;20070;-68
2024/01/12 01:17:45;;;;;;;15.80;8.25;;;;;;;;;;4995295;28;20042;-68
2024/01/12 01:20:12;;;;;;;12.98;7.97;;;;;;;;;;4999599;28;20486;-68
2024/01/12 01:22:38;;;;;;;17.52;8.07;;;;;;;;;;4986699;28;20477;-68
2024/01/12 01:25:04;;;;;;;17.52;8.43;;;;;;;;;;4990797;28;20046;-68
2024/01/12 01:27:30;;;;;;;15.60;8.00;;;;;;;;;;4989430;28;20061;-68
2024/01/12 01:29:56;;;;;;;13.45;7.97;;;;;;;;;;4996849;28;20561;-68
2024/01/12 01:32:22;;;;;;;16.42;8.65;;;;;;;;;;5014121;28;20047;-68
2024/01/12 01:34:48;;;;;;;13.38;8.70;;;;;;;;;;5022261;28;20104;-68
2024/01/12 01:37:14;;;;;;;13.65;7.80;;;;;;;;;;5020919;28;20963;-68
2024/01/12 01:39:40;;;;;;;12.80;7.63;;;;;;;;;;4987328;28;20050;-68
2024/01/12 01:42:06;;;;;;;15.88;8.23;;;;;;;;;;4989568;28;20053;-68
2024/01/12 01:44:32;;;;;;;13.60;7.57;;;;;;;;;;4989749;28;20526;-68
2024/01/12 01:46:59;;;;;;;12.10;7.53;;;;;;;;;;4987783;28;20090;-68
2024/01/12 01:49:26;;;;;;;13.18;7.80;;;;;;;;;;4986445;28;20050;-68
2024/01/12 01:51:52;;;;;;;14.05;7.65;;;;;;;;;;5009247;28;20053;-68
2024/01/12 01:54:19;;;;;;;15.65;7.80;;;;;;;;;;4994515;28;20403;-68
2024/01/12 01:56:45;;;;;;;14.57;7.85;;;;;;;;;;4997422;28;20431;-68
2024/01/12 01:59:15;;;;;;;10.68;6.75;;;;;;;;;;4983836;28;20055;-68
2024/01/12 02:01:42;;;;;;;12.80;7.97;;;;;;;;;;5028444;28;20153;-68
2024/01/12 02:04:08;;;;;;;16.05;7.20;;;;;;;;;;4997911;28;20452;-68
2024/01/12 02:06:35;;;;;;;13.60;7.25;;;;;;;;;;4984872;28;20041;-69
2024/01/12 02:09:03;;;;;;;12.23;7.15;;;;;;;;;;4989203;28;20059;-68
2024/01/12 02:11:29;;;;;;;12.90;7.35;;;;;;;;;;4975153;28;20050;-69
2024/01/12 02:13:56;;;;;;;15.32;7.22;;;;;;;;;;4987715;28;20042;-68
2024/01/12 02:16:22;;;;;;;15.75;6.68;;;;;;;;;;5002821;28;20042;-68
2024/01/12 02:18:48;;;;;;;15.00;7.28;;;;;;;;;;5002540;28;20046;-68
2024/01/12 02:21:14;;;;;;;13.07;7.85;;;;;;;;;;4994762;28;20397;-68
2024/01/12 02:23:40;;;;;;;11.82;6.82;;;;;;;;;;4987327;28;20042;-67
2024/01/12 02:26:06;;;;;;;14.20;6.80;;;;;;;;;;4989088;28;20041;-68
2024/01/12 02:28:33;;;;;;;17.20;7.07;;;;;;;;;;4987562;28;20452;-68
2024/01/12 02:31:00;;;;;;;16.55;7.00;;;;;;;;;;4985289;28;20136;-68
2024/01/12 02:33:26;;;;;;;9.77;6.20;;;;;;;;;;5017265;28;20786;-68
2024/01/12 02:35:52;;;;;;;12.77;6.82;;;;;;;;;;4991419;28;20069;-68
2024/01/12 02:38:18;;;;;;;14.48;6.63;;;;;;;;;;4985629;28;20042;-68
2024/01/12 02:40:44;;;;;;;11.30;6.43;;;;;;;;;;5025222;28;20050;-68
2024/01/12 02:43:10;;;;;;;11.13;6.18;;;;;;;;;;5020761;28;20050;-68
2024/01/12 02:45:36;;;;;;;12.65;6.28;;;;;;;;;;4993875;28;20056;-68
2024/01/12 02:48:02;;;;;;;13.95;6.80;;;;;;;;;;4991485;28;20046;-68
2024/01/12 02:50:28;;;;;;;12.43;6.50;;;;;;;;;;4996892;28;20105;-68
2024/01/12 02:52:54;;;;;;;16.20;6.40;;;;;;;;;;5006647;28;20045;-68
2024/01/12 02:55:20;;;;;;;14.13;6.95;;;;;;;;;;5004661;28;20086;-68
2024/01/12 02:57:46;;;;;;;13.35;6.32;;;;;;;;;;4990923;28;20058;-68
2024/01/12 03:00:13;;;;;;;10.20;6.18;;;;;;;;;;4986690;28;20125;-68
2024/01/12 03:02:39;;;;;;;15.00;6.60;;;;;;;;;;4995389;28;20100;-68
2024/01/12 03:05:05;;;;;;;16.85;6.88;;;;;;;;;;4999330;28;20049;-68
2024/01/12 03:07:31;;;;;;;15.23;6.68;;;;;;;;;;4994182;28;20081;-68
2024/01/12 03:09:58;;;;;;;13.20;6.68;;;;;;;;;;5009869;28;20050;-68
2024/01/12 03:12:24;;;;;;;15.77;6.75;;;;;;;;;;4987129;28;20054;-68
2024/01/12 03:14:50;;;;;;;14.15;6.60;;;;;;;;;;4994099;28;20049;-68
2024/01/12 03:17:16;;;;;;;23.15;11.63;;;;;;;;;;4990749;28;20379;-68
2024/01/12 03:19:42;;;;;;;25.17;10.13;;;;;;;;;;4997316;28;20054;-68
2024/01/12 03:22:09;;;;;;;19.45;9.23;;;;;;;;;;4986569;28;20042;-68
2024/01/12 03:24:35;;;;;;;18.58;8.15;;;;;;;;;;5021651;28;20065;-69
2024/01/12 03:27:01;;;;;;;13.10;7.57;;;;;;;;;;4992464;28;20406;-68
2024/01/12 03:29:27;;;;;;;15.48;7.65;;;;;;;;;;4989516;28;20050;-68
2024/01/12 03:31:53;;;;;;;16.58;7.82;;;;;;;;;;4989584;28;20045;-68
2024/01/12 03:34:19;;;;;;;17.27;7.95;;;;;;;;;;4987917;28;20046;-68
2024/01/12 03:36:45;;;;;;;15.38;7.63;;;;;;;;;;5023079;28;20121;-68
2024/01/12 03:39:11;;;;;;;19.13;7.70;;;;;;;;;;4991512;28;20074;-68
2024/01/12 03:41:37;;;;;;;12.05;7.15;;;;;;;;;;4989345;28;20042;-68
2024/01/12 03:44:03;;;;;;;12.68;6.88;;;;;;;;;;4993058;28;20051;-68
2024/01/12 03:46:29;;;;;;;15.55;6.18;;;;;;;;;;4987081;28;20487;-68
2024/01/12 03:48:56;;;;;;;13.25;6.78;;;;;;;;;;4994639;28;20053;-68
2024/01/12 03:51:22;;;;;;;12.02;5.38;;;;;;;;;;5018165;28;20042;-68
2024/01/12 03:53:48;;;;;;;12.73;5.53;;;;;;;;;;4987210;28;20129;-68
2024/01/12 03:56:14;;;;;;;10.93;5.10;;;;;;;;;;4992603;28;20151;-68
2024/01/12 03:58:40;;;;;;;10.30;5.00;;;;;;;;;;4997220;28;20402;-68
2024/01/12 04:01:09;;;;;;;12.15;5.30;;;;;;;;;;5008201;28;20053;-68
2024/01/12 04:03:35;;;;;;;14.50;5.10;;;;;;;;;;5002444;28;20059;-68
2024/01/12 04:06:01;;;;;;;11.40;5.18;;;;;;;;;;4987706;28;20499;-68
2024/01/12 04:08:27;;;;;;;12.45;4.97;;;;;;;;;;4999466;28;20061;-68
2024/01/12 04:10:53;;;;;;;16.15;5.70;;;;;;;;;;4989903;28;20118;-68
2024/01/12 04:13:19;;;;;;;11.63;5.28;;;;;;;;;;4985231;28;20062;-68
2024/01/12 04:15:45;;;;;;;13.20;5.30;;;;;;;;;;4995724;28;20117;-68
2024/01/12 04:18:11;;;;;;;16.45;5.85;;;;;;;;;;5014443;28;20088;-67
2024/01/12 04:20:37;;;;;;;13.77;5.00;;;;;;;;;;5011410;28;20078;-68
2024/01/12 04:23:03;;;;;;;12.25;5.65;;;;;;;;;;4990437;28;20475;-68
2024/01/12 04:25:29;;;;;;;15.82;5.25;;;;;;;;;;5000180;28;20059;-68
2024/01/12 04:27:55;;;;;;;13.77;5.35;;;;;;;;;;4991513;28;20466;-68
2024/01/12 04:30:24;;;;;;;14.32;5.13;;;;;;;;;;5014514;28;20039;-68
2024/01/12 04:32:50;;;;;;;18.50;5.43;;;;;;;;;;5022964;28;20606;-68
2024/01/12 04:35:16;;;;;;;13.95;4.68;;;;;;;;;;4987983;28;20479;-68
2024/01/12 04:37:42;;;;;;;16.25;5.57;;;;;;;;;;4990076;28;20061;-68
2024/01/12 04:40:09;;;;;;;14.23;5.00;;;;;;;;;;4988094;28;20054;-68
2024/01/12 04:42:35;;;;;;;18.35;4.72;;;;;;;;;;4988673;28;20129;-68
2024/01/12 04:45:01;;;;;;;13.65;5.00;;;;;;;;;;4986901;28;20125;-68
2024/01/12 04:47:27;;;;;;;15.88;5.00;;;;;;;;;;4989819;28;20081;-68
2024/01/12 04:49:53;;;;;;;15.68;4.45;;;;;;;;;;4993762;28;20475;-68
2024/01/12 04:52:19;;;;;;;16.77;4.90;;;;;;;;;;5025774;28;20128;-68
2024/01/12 04:54:45;;;;;;;25.00;5.20;;;;;;;;;;5022359;28;20042;-67
2024/01/12 04:57:11;;;;;;;25.67;4.95;;;;;;;;;;5019612;28;20073;-68
2024/01/12 04:59:37;;;;;;;18.42;4.95;;;;;;;;;;4983337;28;20052;-68
2024/01/12 05:02:03;;;;;;;27.27;5.15;;;;;;;;;;4985450;28;20058;-68
2024/01/12 05:04:29;;;;;;;21.08;4.53;;;;;;;;;;5017035;28;20053;-68
2024/01/12 05:06:55;;;;;;;20.50;4.95;;;;;;;;;;4991026;28;20057;-68
2024/01/12 05:09:21;;;;;;;24.52;6.18;;;;;;;;;;4989946;28;20043;-68
2024/01/12 05:11:47;;;;;;;25.40;5.20;;;;;;;;;;4990070;28;20042;-68
2024/01/12 05:14:13;;;;;;;24.40;4.80;;;;;;;;;;4988414;28;20122;-68
2024/01/12 05:16:39;;;;;;;19.98;5.18;;;;;;;;;;4989176;28;20046;-68
2024/01/12 05:19:05;;;;;;;20.67;5.05;;;;;;;;;;4987894;28;20046;-68
2024/01/12 05:21:31;;;;;;;30.80;5.93;;;;;;;;;;4986383;28;20034;-68
2024/01/12 05:23:57;;;;;;;23.45;4.85;;;;;;;;;;4990887;28;20080;-68
2024/01/12 05:26:23;;;;;;;20.63;5.75;;;;;;;;;;4987318;28;20057;-68
2024/01/12 05:28:49;;;;;;;23.35;4.90;;;;;;;;;;4995410;28;20096;-69
2024/01/12 05:31:15;;;;;;;22.60;5.57;;;;;;;;;;5016900;28;20508;-68
2024/01/12 05:33:41;;;;;;;18.92;4.75;;;;;;;;;;5024302;28;20047;-68
2024/01/12 05:36:07;;;;;;;20.30;5.03;;;;;;;;;;4990680;28;20047;-68
2024/01/12 05:38:33;;;;;;;24.55;4.75;;;;;;;;;;4981933;28;20436;-68
2024/01/12 05:40:59;;;;;;;24.48;5.22;;;;;;;;;;4983950;28;20050;-68
2024/01/12 05:43:26;;;;;;;18.55;4.70;;;;;;;;;;4990103;28;20069;-69
2024/01/12 05:45:52;;;;;;;23.98;5.50;;;;;;;;;;4984794;28;20046;-68
2024/01/12 05:48:19;;;;;;;24.15;5.10;;;;;;;;;;4990005;28;20057;-68
2024/01/12 05:50:45;;;;;;;13.15;4.53;;;;;;;;;;4992197;28;20169;-68
2024/01/12 05:53:11;;;;;;;15.30;3.78;;;;;;;;;;5020903;28;20137;-68
2024/01/12 05:55:37;;;;;;;18.17;3.97;;;;;;;;;;4985603;28;20133;-68
2024/01/12 05:58:03;;;;;;;12.73;3.80;;;;;;;;;;4990914;28;20384;-68
2024/01/12 06:00:29;;;;;;;18.88;4.22;;;;;;;;;;4991016;28;20058;-68
2024/01/12 06:02:55;;;;;;;20.25;4.13;;;;;;;;;;4993302;28;20504;-69
2024/01/12 06:05:21;;;;;;;20.30;4.40;;;;;;;;;;4996374;28;20057;-68
2024/01/12 06:07:47;;;;;;;18.08;5.15;;;;;;;;;;4989938;28;20102;-68
2024/01/12 06:10:13;;;;;;;19.15;5.80;;;;;;;;;;4993730;28;20450;-67
2024/01/12 06:12:39;;;;;;;21.00;4.90;;;;;;;;;;4987844;28;20046;-68
2024/01/12 06:15:05;;;;;;;21.73;5.40;;;;;;;;;;4990920;28;20050;-68
2024/01/12 06:17:31;;;;;;;14.55;4.00;;;;;;;;;;4995516;28;20056;-68
2024/01/12 06:19:57;;;;;;;13.68;5.03;;;;;;;;;;5010528;28;20050;-68
2024/01/12 06:22:23;;;;;;;21.80;4.43;;;;;;;;;;4988601;28;20129;-68
2024/01/12 06:24:49;;;;;;;22.55;4.95;;;;;;;;;;4990827;28;20047;-67
2024/01/12 06:27:16;;;;;;;22.02;4.18;;;;;;;;;;4988651;28;20060;-68
2024/01/12 06:29:42;;;;;;;18.70;4.32;;;;;;;;;;4988590;28;20059;-67
2024/01/12 06:32:08;;;;;;;22.42;4.80;;;;;;;;;;4980914;28;20058;-68
2024/01/12 06:34:34;;;;;;;24.52;4.97;;;;;;;;;;4986869;28;20046;-68
2024/01/12 06:37:00;;;;;;;27.80;5.60;;;;;;;;;;4984600;28;20065;-68
2024/01/12 06:39:26;;;;;;;22.13;5.00;;;;;;;;;;4987996;28;20063;-68
2024/01/12 06:41:52;;;;;;;26.48;5.53;;;;;;;;;;5004436;28;20478;-68
2024/01/12 06:44:19;;;;;;;22.45;4.38;;;;;;;;;;4989673;28;20047;-68
2024/01/12 06:46:45;;;;;;;17.77;4.45;;;;;;;;;;4985524;28;20062;-67
2024/01/12 06:49:11;;;;;;;13.70;3.90;;;;;;;;;;4987046;28;20057;-67
2024/01/12 06:51:37;;;;;;;16.70;3.50;;;;;;;;;;4989896;28;20085;-67
2024/01/12 06:54:04;;;;;;;13.18;3.50;;;;;;;;;;4988945;28;20039;-67
2024/01/12 06:56:30;;;;;;;16.95;4.95;;;;;;;;;;4988935;28;20498;-67
2024/01/12 06:58:57;;;;;;;24.45;4.65;;;;;;;;;;4987718;28;20100;-67
2024/01/12 07:01:23;;;;;;;15.50;4.13;;;;;;;;;;5017327;28;20050;-67
2024/01/12 07:03:51;;;;;;;13.18;4.25;;;;;;;;;;5015382;28;20068;-67
2024/01/12 07:06:17;;;;;;;22.83;4.82;;;;;;;;;;4987148;28;20070;-67
2024/01/12 07:08:43;;;;;;;17.75;4.25;;;;;;;;;;5021309;28;20058;-67
2024/01/12 07:11:12;;;;;;;20.42;5.20;;;;;;;;;;4988258;28;20487;-67
2024/01/12 07:13:38;;;;;;;18.13;4.43;;;;;;;;;;4984267;28;20046;-68
2024/01/12 07:16:04;;;;;;;14.25;4.35;;;;;;;;;;5015406;28;20053;-68
2024/01/12 07:18:30;;;;;;;16.08;4.40;;;;;;;;;;5016590;28;20046;-68
2024/01/12 07:20:57;;;;;;;17.90;4.18;;;;;;;;;;5023239;28;20038;-67
2024/01/12 07:23:26;;;;;;;14.40;4.25;;;;;;;;;;4990538;28;20058;-67
2024/01/12 07:25:52;;;;;;;20.40;4.72;;;;;;;;;;4988172;28;20105;-67
2024/01/12 07:28:18;;;;;;;17.10;3.88;;;;;;;;;;4989727;28;20459;-67
2024/01/12 07:30:45;;;;;;;12.63;3.85;;;;;;;;;;4987304;28;20180;-67
2024/01/12 07:33:11;;;;;;;12.85;3.92;;;;;;;;;;4987947;28;20058;-67
2024/01/12 07:35:37;;;;;;;14.73;3.53;;;;;;;;;;4991057;28;20045;-68
2024/01/12 07:38:03;;;;;;;12.10;4.10;;;;;;;;;;4988536;28;20506;-68
2024/01/12 07:40:32;;;;;;;19.02;3.80;;;;;;;;;;4988092;28;20557;-68
2024/01/12 07:42:58;;;;;;;15.85;4.38;;;;;;;;;;4988723;28;20129;-68
2024/01/12 07:45:24;;;;;;;13.07;3.95;;;;;;;;;;4984892;28;20188;-67
2024/01/12 07:47:50;;;;;;;13.80;4.03;;;;;;;;;;5014947;28;20050;-67
2024/01/12 07:50:16;;;;;;;17.40;4.30;;;;;;;;;;4980240;28;20053;-67
2024/01/12 07:52:42;;;;;;;19.67;5.50;;;;;;;;;;4988927;28;20049;-68
2024/01/12 07:55:08;;;;;;;26.17;5.00;;;;;;;;;;5014247;28;20046;-68
2024/01/12 07:57:34;;;;;;;21.95;4.53;;;;;;;;;;4999344;28;20056;-68
2024/01/12 08:00:00;;;;;;;16.58;4.28;;;;;;;;;;5003700;28;20482;-68
2024/01/12 08:02:26;;;;;;;16.45;4.68;;;;;;;;;;4994702;28;20050;-68
2024/01/12 08:04:52;;;;;;;18.50;4.22;;;;;;;;;;4981083;28;20517;-68
2024/01/12 08:07:18;;;;;;;16.92;3.90;;;;;;;;;;5025116;28;20054;-68
2024/01/12 08:09:44;;;;;;;14.48;4.28;;;;;;;;;;4989689;28;20050;-68
2024/01/12 08:12:10;;;;;;;18.08;3.72;;;;;;;;;;4994594;28;20100;-68
2024/01/12 08:14:36;;;;;;;11.82;3.72;;;;;;;;;;4983715;28;20039;-68
2024/01/12 08:17:02;;;;;;;16.83;4.00;;;;;;;;;;5021754;28;20072;-68
2024/01/12 08:19:28;;;;;;;17.63;4.47;;;;;;;;;;4992257;28;20753;-68
2024/01/12 08:21:54;;;;;;;17.08;4.22;;;;;;;;;;4988662;28;20113;-68
2024/01/12 08:24:20;;;;;;;12.13;3.45;;;;;;;;;;5022434;28;20072;-68
2024/01/12 08:26:46;;;;;;;15.20;3.47;;;;;;;;;;4989731;28;20437;-68
2024/01/12 08:29:12;;;;;;;12.90;3.08;;;;;;;;;;4990256;28;20053;-68
2024/01/12 08:31:38;;;;;;;12.82;3.55;;;;;;;;;;4992289;28;20054;-68
2024/01/12 08:34:04;;;;;;;11.50;3.58;;;;;;;;;;5005025;28;20060;-68
2024/01/12 08:36:30;;;;;;;12.90;3.13;;;;;;;;;;4993912;28;20046;-68
2024/01/12 08:38:56;;;;;;;11.68;3.55;;;;;;;;;;5020587;28;20047;-68
2024/01/12 08:41:22;;;;;;;13.82;3.53;;;;;;;;;;5018986;28;20047;-68
2024/01/12 08:43:48;;;;;;;14.60;4.10;;;;;;;;;;4984753;28;20050;-68
2024/01/12 08:46:14;;;;;;;11.90;3.53;;;;;;;;;;5017736;28;20053;-68
2024/01/12 08:48:41;;;;;;;13.15;3.55;;;;;;;;;;4984625;28;20051;-68
2024/01/12 08:51:07;;;;;;;14.02;4.78;;;;;;;;;;5023009;28;20138;-68
2024/01/12 08:53:36;;;;;;;11.25;3.65;;;;;;;;;;4987112;28;20054;-68
2024/01/12 08:56:02;;;;;;;8.57;3.17;;;;;;;;;;4988653;28;20403;-68
2024/01/12 08:58:28;;;;;;;14.90;4.05;;;;;;;;;;5020524;28;20054;-68
2024/01/12 09:00:54;;;;;;;15.98;3.90;;;;;;;;;;5021399;28;20052;-68
2024/01/12 09:03:20;;;;;;;10.13;3.90;;;;;;;;;;4983994;28;20514;-68
2024/01/12 09:05:46;;;;;;;16.35;4.53;;;;;;;;;;5020587;28;20121;-68
2024/01/12 09:08:12;;;;;;;16.65;4.43;;;;;;;;;;4987383;28;20137;-68
2024/01/12 09:10:38;;;;;;;9.52;3.20;;;;;;;;;;5020858;28;20050;-67
2024/01/12 09:13:04;;;;;;;13.82;3.38;;;;;;;;;;4989790;28;20503;-68
2024/01/12 09:15:30;;;;;;;14.65;3.63;;;;;;;;;;4988207;28;20122;-68
2024/01/12 09:17:56;;;;;;;19.85;4.22;;;;;;;;;;5018549;28;20533;-68
2024/01/12 09:20:22;;;;;;;12.95;3.40;;;;;;;;;;4982573;28;20053;-68
2024/01/12 09:22:49;;;;;;;21.80;4.57;;;;;;;;;;5014524;28;20452;-68
2024/01/12 09:25:15;;;;;;;13.88;4.10;;;;;;;;;;4982703;28;20053;-68
2024/01/12 09:27:41;;;;;;;19.30;5.05;;;;;;;;;;4985086;28;20092;-68
2024/01/12 09:30:07;;;;;;;12.02;4.28;;;;;;;;;;4988366;28;20121;-68
2024/01/12 09:32:33;;;;;;;22.10;5.00;;;;;;;;;;5017829;28;20119;-68
2024/01/12 09:34:59;;;;;;;13.13;4.55;;;;;;;;;;5021147;28;20066;-68
2024/01/12 09:37:25;;;;;;;18.92;4.75;;;;;;;;;;5018703;28;20090;-69
2024/01/12 09:39:51;;;;;;;18.40;5.25;;;;;;;;;;5020184;28;20140;-68
2024/01/12 09:42:18;;;;;;;14.45;4.25;;;;;;;;;;4989916;28;20043;-68
2024/01/12 09:44:45;;;;;;;20.17;4.50;;;;;;;;;;4996437;28;20170;-68
2024/01/12 09:47:12;;;;;;;13.13;4.07;;;;;;;;;;4987410;28;20504;-68
2024/01/12 09:49:38;;;;;;;17.63;4.78;;;;;;;;;;4986374;28;20041;-68
2024/01/12 09:52:07;;;;;;;12.23;4.22;;;;;;;;;;4987710;28;20089;-68
2024/01/12 09:54:35;;;;;;;19.98;5.53;;;;;;;;;;5019960;28;20046;-68
2024/01/12 09:57:02;;;;;;;20.80;5.00;;;;;;;;;;5022911;28;20121;-68
2024/01/12 09:59:29;;;;;;;16.65;4.68;;;;;;;;;;4995959;28;20054;-68
2024/01/12 10:01:57;;;;;;;17.10;4.70;;;;;;;;;;4985674;28;20053;-68
2024/01/12 10:04:23;;;;;;;18.40;5.03;;;;;;;;;;5018433;28;20057;-68
2024/01/12 10:06:49;;;;;;;20.17;5.50;;;;;;;;;;4995316;28;20597;-68
2024/01/12 10:09:16;;;;;;;28.92;5.05;;;;;;;;;;4985199;28;20046;-69
2024/01/12 10:11:43;;;;;;;17.95;4.45;;;;;;;;;;5019312;28;20447;-68
2024/01/12 10:14:09;;;;;;;19.15;4.90;;;;;;;;;;4989081;28;20050;-69
2024/01/12 10:16:35;;;;;;;14.02;4.43;;;;;;;;;;4983727;28;20049;-69
2024/01/12 10:19:01;;;;;;;17.98;4.25;;;;;;;;;;4996423;28;20121;-69
2024/01/12 10:21:30;;;;;;;16.95;3.97;;;;;;;;;;4986007;28;20126;-69
2024/01/12 10:24:05;;;;;;;17.58;3.92;;;;;;;;;;4992195;28;20035;-68
2024/01/12 10:26:31;;;;;;;13.70;3.67;;;;;;;;;;4988263;28;20053;-69
2024/01/12 10:29:01;;;;;;;15.40;4.60;;;;;;;;;;4988235;28;20047;-69
2024/01/12 10:31:27;;;;;;;13.43;4.13;;;;;;;;;;4987198;28;20054;-69
2024/01/12 10:33:54;;;;;;;18.23;4.05;;;;;;;;;;4989871;28;20471;-68
2024/01/12 10:36:21;;;;;;;19.55;4.78;;;;;;;;;;5018711;28;20049;-69
2024/01/12 10:38:47;;;;;;;14.10;3.40;;;;;;;;;;5018881;28;20123;-69
2024/01/12 10:41:14;;;;;;;15.05;3.50;;;;;;;;;;5017669;28;20112;-69
2024/01/12 10:43:41;;;;;;;16.30;3.53;;;;;;;;;;4998663;28;20429;-69
2024/01/12 10:46:11;;;;;;;13.85;4.57;;;;;;;;;;5000002;28;20455;-68
2024/01/12 10:48:46;;;;;;;10.23;3.40;;;;;;;;;;4988039;28;20635;-69
2024/01/12 10:51:14;;;;;;;10.65;3.70;;;;;;;;;;5003212;28;20125;-68
2024/01/12 10:53:45;;;;;;;12.73;3.22;;;;;;;;;;4995033;28;20046;-69
2024/01/12 10:56:11;;;;;;;14.40;3.42;;;;;;;;;;5024557;28;20038;-69
2024/01/12 10:58:37;;;;;;;14.05;3.22;;;;;;;;;;4987683;28;20065;-69
2024/01/12 11:01:04;;;;;;;11.93;3.60;;;;;;;;;;4995691;28;20046;-69
2024/01/12 11:03:30;;;;;;;12.25;2.88;;;;;;;;;;4985742;28;20042;-69
2024/01/12 11:05:56;;;;;;;9.40;3.92;;;;;;;;;;5021343;28;20131;-68
2024/01/12 11:08:23;;;;;;;7.25;3.90;;;;;;;;;;4991850;28;20057;-69
2024/01/12 11:10:50;;;;;;;8.45;2.95;;;;;;;;;;4990525;28;20081;-68
2024/01/12 11:13:17;;;;;;;10.48;2.85;;;;;;;;;;5021692;28;20051;-69
2024/01/12 11:15:44;;;;;;;10.63;3.20;;;;;;;;;;5022077;28;20046;-69
2024/01/12 11:18:10;;;;;;;7.80;3.83;;;;;;;;;;4996194;28;20042;-69
2024/01/12 11:20:36;;;;;;;5.05;2.85;;;;;;;;;;4989952;28;20061;-69
2024/01/12 11:23:02;;;;;;;9.45;3.15;;;;;;;;;;5021910;28;20050;-68
2024/01/12 11:25:29;;;;;;;9.18;4.03;;;;;;;;;;4987041;28;20061;-69
2024/01/12 11:27:56;;;;;;;11.50;3.67;;;;;;;;;;4990219;28;20165;-69
2024/01/12 11:30:24;;;;;;;10.48;3.30;;;;;;;;;;4993067;28;20054;-69
2024/01/12 11:33:01;;;;;;;13.55;3.53;;;;;;;;;;4987355;28;20042;-69
2024/01/12 11:35:29;;;;;;;11.40;3.67;;;;;;;;;;4988841;28;20062;-69
2024/01/12 11:38:10;;;;;;;10.82;4.78;;;;;;;;;;4988597;28;20046;-69
2024/01/12 11:40:37;;;;;;;11.98;4.28;;;;;;;;;;4987605;28;20034;-69
2024/01/12 11:43:03;;;;;;;8.35;3.33;;;;;;;;;;4988597;28;20049;-69
2024/01/12 11:45:30;;;;;;;11.45;3.67;;;;;;;;;;4988259;28;20054;-69
2024/01/12 11:47:56;;;;;;;8.23;3.10;;;;;;;;;;4989397;28;20106;-69
2024/01/12 11:50:27;;;;;;;7.40;3.13;;;;;;;;;;4988384;28;20489;-69
2024/01/12 11:52:57;;;;;;;9.48;2.70;;;;;;;;;;5018846;28;20078;-70
2024/01/12 11:55:23;;;;;;;8.98;3.13;;;;;;;;;;4988376;28;20125;-69
2024/01/12 11:57:51;;;;;;;9.75;3.28;;;;;;;;;;5019875;28;20058;-69
2024/01/12 12:00:17;;;;;;;6.00;2.22;;;;;;;;;;4990343;28;20073;-69
2024/01/12 12:02:43;;;;;;;9.90;3.00;;;;;;;;;;4993966;28;20050;-69
2024/01/12 12:05:09;;;;;;;12.30;3.10;;;;;;;;;;4989799;28;20039;-69
2024/01/12 12:07:37;;;;;;;8.98;3.30;;;;;;;;;;4988855;28;20494;-69
2024/01/12 12:10:03;;;;;;;11.05;2.88;;;;;;;;;;4991271;28;20042;-69
2024/01/12 12:12:29;;;;;;;5.72;2.85;;;;;;;;;;4988048;28;20100;-69
2024/01/12 12:15:06;;;;;;;6.53;2.28;;;;;;;;;;4994142;28;20072;-69
2024/01/12 12:17:36;;;;;;;6.28;2.92;;;;;;;;;;4991237;28;20117;-69
2024/01/12 12:20:04;;;;;;;7.65;2.60;;;;;;;;;;4994713;28;20069;-69
2024/01/12 12:22:31;;;;;;;8.40;2.47;;;;;;;;;;4993513;28;20133;-69
2024/01/12 12:24:57;;;;;;;7.65;2.92;;;;;;;;;;5019999;28;20050;-69
2024/01/12 12:27:23;;;;;;;7.38;3.38;;;;;;;;;;5015863;28;20391;-69
2024/01/12 12:29:50;;;;;;;8.93;3.20;;;;;;;;;;5015559;28;20042;-69
2024/01/12 12:32:16;;;;;;;10.38;2.85;;;;;;;;;;4989656;28;20553;-69
2024/01/12 12:34:48;;;;;;;8.55;3.30;;;;;;;;;;5018571;28;20081;-69
2024/01/12 12:37:14;;;;;;;8.48;2.95;;;;;;;;;;5018759;28;20133;-69
2024/01/12 12:39:44;;;;;;;8.15;3.38;;;;;;;;;;5022167;28;20490;-69
2024/01/12 12:42:10;;;;;;;9.32;3.30;;;;;;;;;;4992014;28;20129;-69
2024/01/12 12:44:36;;;;;;;5.78;3.17;;;;;;;;;;4989960;28;20121;-69
2024/01/12 12:47:06;;;;;;;7.25;3.92;;;;;;;;;;4988530;28;20546;-69
2024/01/12 12:49:33;;;;;;;7.22;2.90;;;;;;;;;;4985949;28;20061;-69
2024/01/12 12:51:59;;;;;;;11.10;3.10;;;;;;;;;;4995864;28;20049;-69
2024/01/12 12:54:27;;;;;;;8.77;3.15;;;;;;;;;;4986119;28;20074;-69
2024/01/12 12:56:54;;;;;;;11.57;3.17;;;;;;;;;;5019487;28;20054;-69
2024/01/12 12:59:20;;;;;;;9.55;3.70;;;;;;;;;;4989598;28;20133;-69
2024/01/12 13:01:46;;;;;;;14.25;3.83;;;;;;;;;;4994549;28;20046;-69
2024/01/12 13:04:13;;;;;;;10.18;3.60;;;;;;;;;;4991835;28;20058;-69
2024/01/12 13:06:42;;;;;;;9.90;3.00;;;;;;;;;;4990828;28;20501;-69
2024/01/12 13:09:08;;;;;;;10.48;3.00;;;;;;;;;;5018285;28;20092;-70
2024/01/12 13:11:34;;;;;;;8.88;2.95;;;;;;;;;;4978438;28;20049;-69
2024/01/12 13:14:02;;;;;;;12.20;2.97;;;;;;;;;;4990075;28;20117;-69
2024/01/12 13:16:30;;;;;;;10.77;3.28;;;;;;;;;;4987188;28;20057;-69
2024/01/12 13:18:56;;;;;;;8.82;3.17;;;;;;;;;;4987637;28;20047;-69
2024/01/12 13:21:22;;;;;;;7.68;2.78;;;;;;;;;;4988538;28;20089;-69
2024/01/12 13:23:50;;;;;;;8.10;3.15;;;;;;;;;;4989011;28;20046;-69
2024/01/12 13:26:16;;;;;;;7.68;3.08;;;;;;;;;;5020407;28;20446;-69
2024/01/12 13:28:42;;;;;;;7.25;2.90;;;;;;;;;;4988164;28;20053;-69
2024/01/12 13:31:08;;;;;;;7.80;2.50;;;;;;;;;;4987211;28;20034;-69
2024/01/12 13:33:34;;;;;;;5.70;2.33;;;;;;;;;;5019570;28;20078;-69
2024/01/12 13:36:00;;;;;;;5.82;2.35;;;;;;;;;;4990038;28;20113;-69
2024/01/12 13:38:26;;;;;;;8.02;2.90;;;;;;;;;;4987148;28;20682;-69
2024/01/12 13:40:52;;;;;;;7.75;3.00;;;;;;;;;;4984747;28;20038;-69
2024/01/12 13:43:18;;;;;;;9.70;3.05;;;;;;;;;;4990398;28;20111;-68
2024/01/12 13:45:48;;;;;;;8.15;3.22;;;;;;;;;;4984852;28;20038;-69
2024/01/12 13:48:14;;;;;;;6.05;2.72;;;;;;;;;;4991363;28;20129;-69
2024/01/12 13:50:40;;;;;;;5.03;2.70;;;;;;;;;;4991021;28;20161;-69
2024/01/12 13:53:06;;;;;;;11.63;3.50;;;;;;;;;;5024194;28;20605;-69
2024/01/12 13:55:32;;;;;;;9.65;3.63;;;;;;;;;;4995695;28;20478;-71
2024/01/12 13:57:58;;;;;;;9.00;3.58;;;;;;;;;;4974431;28;21354;-70
2024/01/12 14:00:24;;;;;;;8.23;3.30;;;;;;;;;;4991838;28;20479;-70
2024/01/12 14:02:50;;;;;;;9.52;3.53;;;;;;;;;;4988376;28;20053;-70
2024/01/12 14:05:16;;;;;;;6.10;2.63;;;;;;;;;;4999659;28;20046;-70
2024/01/12 14:07:43;;;;;;;7.85;2.88;;;;;;;;;;4990725;28;20097;-70
2024/01/12 14:10:09;;;;;;;9.02;3.25;;;;;;;;;;4992787;28;20445;-70
2024/01/12 14:12:35;;;;;;;8.65;3.33;;;;;;;;;;5002912;28;20050;-70
2024/01/12 14:15:01;;;;;;;15.77;3.88;;;;;;;;;;4997688;28;20117;-70
2024/01/12 14:17:27;;;;;;;10.40;3.38;;;;;;;;;;4991767;28;20072;-70
2024/01/12 14:19:54;;;;;;;7.25;3.53;;;;;;;;;;4988422;28;20070;-70
2024/01/12 14:22:20;;;;;;;15.85;3.28;;;;;;;;;;4994365;28;20108;-69
2024/01/12 14:24:48;;;;;;;13.55;3.00;;;;;;;;;;4993337;28;20034;-69
2024/01/12 14:27:14;;;;;;;9.75;3.22;;;;;;;;;;4987696;28;20050;-70
2024/01/12 14:29:40;;;;;;;9.20;2.85;;;;;;;;;;4988512;28;20034;-70